Time;durP1;ratioP1;P1;durP2;ratioP2;P2;SDS_P1;SDS_P2;PMS_P1;PMS_P2;Temp;Humidity;BMP_temperature;BMP_pressure;BME280_temperature;BME280_humidity;BME280_pressure;Samples;Min_cycle;Max_cycle;Signal;HPM_P1;HPM_P2
2023/06/25 00:01:05;;;;;;;;;;;;;;;23.35;75.57;96956.95;588437;241;65141;-63
2023/06/25 00:03:33;;;;;;;;;;;;;;;23.35;75.58;96953.47;584778;240;68541;-63
2023/06/25 00:06:00;;;;;;;;;;;;;;;23.35;75.54;96948.11;582803;242;66669;-63
2023/06/25 00:08:28;;;;;;;;;;;;;;;23.35;75.56;96943.53;582845;242;65043;-64
2023/06/25 00:10:55;;;;;;;;;;;;;;;23.35;75.54;96950.79;582651;243;68514;-64
2023/06/25 00:13:22;;;;;;;;;;;;;;;23.35;75.54;96945.42;582768;242;68679;-64
2023/06/25 00:15:50;;;;;;;;;;;;;;;23.34;75.57;96941.95;582467;243;65084;-64
2023/06/25 00:18:17;;;;;;;;;;;;;;;23.36;75.55;96944.36;582717;242;69156;-64
2023/06/25 00:20:46;;;;;;;;;;;;;;;23.35;75.57;96938.17;582665;243;68692;-64
2023/06/25 00:23:14;;;;;;;;;;;;;;;23.35;75.53;96937.37;582625;240;62954;-64
2023/06/25 00:25:41;;;;;;;;;;;;;;;23.34;75.56;96936.59;582698;243;66777;-64
2023/06/25 00:28:09;;;;;;;;;;;;;;;23.35;75.55;96935.49;582685;242;68538;-64
2023/06/25 00:30:37;;;;;;;;;;;;;;;23.35;75.54;96935.49;582709;243;66110;-63
2023/06/25 00:33:04;;;;;;;;;;;;;;;23.35;75.56;96935.49;582669;243;69008;-64
2023/06/25 00:35:46;;;;;;;;;;;;;;;23.35;75.56;96932.02;582676;243;68804;-64
2023/06/25 00:38:13;;;;;;;;;;;;;;;23.35;75.55;96927.45;582687;243;62613;-63
2023/06/25 00:40:41;;;;;;;;;;;;;;;23.35;75.56;96934.70;582587;242;68884;-63
2023/06/25 00:43:08;;;;;;;;;;;;;;;23.35;75.56;96932.02;582476;243;66430;-63
2023/06/25 00:45:36;;;;;;;;;;;;;;;23.34;75.57;96933.91;582763;242;63661;-63
2023/06/25 00:48:03;;;;;;;;;;;;;;;23.35;75.57;96926.66;582672;243;66318;-63
2023/06/25 00:50:31;;;;;;;;;;;;;;;23.34;75.57;96915.14;582915;242;69019;-63
2023/06/25 00:52:59;;;;;;;;;;;;;;;23.35;75.54;96921.29;582681;243;65047;-63
2023/06/25 00:55:26;;;;;;;;;;;;;;;23.33;75.55;96921.59;582721;242;68812;-63
2023/06/25 00:57:55;;;;;;;;;;;;;;;23.34;75.56;96915.14;582898;242;67980;-63
2023/06/25 01:00:25;;;;;;;;;;;;;;;23.34;75.56;96904.41;582695;243;65107;-63
2023/06/25 01:02:56;;;;;;;;;;;;;;;23.35;75.54;96913.25;584689;241;68585;-63
2023/06/25 01:05:25;;;;;;;;;;;;;;;23.35;75.53;96910.56;583902;240;69575;-64
2023/06/25 01:07:53;;;;;;;;;;;;;;;23.35;75.58;96907.89;588377;240;65683;-64
2023/06/25 01:10:21;;;;;;;;;;;;;;;23.34;75.58;96903.62;588250;240;68166;-64
2023/06/25 01:12:48;;;;;;;;;;;;;;;23.35;75.58;96900.63;588189;240;68494;-64
2023/06/25 01:15:16;;;;;;;;;;;;;;;23.34;75.58;96899.05;588387;241;64914;-64
2023/06/25 01:17:48;;;;;;;;;;;;;;;23.33;75.58;96892.10;588340;241;68443;-63
2023/06/25 01:20:13;;;;;;;;;;;;;;;23.35;75.59;96889.11;588346;240;68310;-64
2023/06/25 01:22:41;;;;;;;;;;;;;;;23.34;75.57;96885.64;588477;240;62945;-64
2023/06/25 01:25:09;;;;;;;;;;;;;;;23.35;75.59;96889.91;588137;240;68274;-64
2023/06/25 01:27:37;;;;;;;;;;;;;;;23.34;75.55;96882.17;588337;240;69232;-64
2023/06/25 01:30:09;;;;;;;;;;;;;;;23.35;75.56;96886.44;588289;240;62948;-64
2023/06/25 01:32:41;;;;;;;;;;;;;;;23.35;75.58;96894.48;588414;241;66673;-64
2023/06/25 01:35:07;;;;;;;;;;;;;;;23.35;75.59;96897.16;588345;240;67090;-64
2023/06/25 01:37:36;;;;;;;;;;;;;;;23.34;75.60;96898.26;588441;240;65166;-64
2023/06/25 01:40:07;;;;;;;;;;;;;;;23.34;75.60;96899.05;588197;241;65838;-64
2023/06/25 01:42:33;;;;;;;;;;;;;;;23.35;75.59;96899.84;588366;240;68519;-64
2023/06/25 01:45:02;;;;;;;;;;;;;;;23.35;75.60;96899.84;586898;240;64958;-64
2023/06/25 01:47:29;;;;;;;;;;;;;;;23.34;75.59;96899.05;588538;240;66350;-64
2023/06/25 01:49:57;;;;;;;;;;;;;;;23.35;75.60;96897.16;588475;241;66245;-64
2023/06/25 01:52:24;;;;;;;;;;;;;;;23.34;75.61;96899.05;588423;240;63004;-65
2023/06/25 01:54:52;;;;;;;;;;;;;;;23.35;75.60;96902.52;588466;241;69361;-64
2023/06/25 01:57:19;;;;;;;;;;;;;;;23.35;75.61;96910.56;588423;240;68354;-64
2023/06/25 01:59:46;;;;;;;;;;;;;;;23.35;75.60;96913.25;588465;240;64912;-64
2023/06/25 02:02:14;;;;;;;;;;;;;;;23.35;75.65;96921.29;588067;240;68322;-64
2023/06/25 02:04:41;;;;;;;;;;;;;;;23.34;75.61;96923.18;582631;243;66374;-64
2023/06/25 02:07:09;;;;;;;;;;;;;;;23.35;75.63;96932.81;582712;243;65358;-64
2023/06/25 02:09:39;;;;;;;;;;;;;;;23.35;75.59;96938.17;582348;243;69301;-64
2023/06/25 02:12:06;;;;;;;;;;;;;;;23.35;75.59;96953.47;582732;243;68240;-64
2023/06/25 02:14:35;;;;;;;;;;;;;;;23.35;75.60;96956.95;582725;243;65034;-64
2023/06/25 02:17:03;;;;;;;;;;;;;;;23.36;75.59;96957.77;582736;243;67251;-64
2023/06/25 02:19:31;;;;;;;;;;;;;;;23.34;75.58;96963.41;582450;243;68696;-64
2023/06/25 02:21:58;;;;;;;;;;;;;;;23.35;75.60;96964.20;582619;243;64760;-64
2023/06/25 02:24:26;;;;;;;;;;;;;;;23.35;75.59;96969.56;582697;243;68543;-64
2023/06/25 02:26:53;;;;;;;;;;;;;;;23.35;75.60;96974.92;582901;242;68509;-64
2023/06/25 02:29:21;;;;;;;;;;;;;;;23.35;75.57;96974.92;582715;243;65147;-64
2023/06/25 02:31:48;;;;;;;;;;;;;;;23.34;75.61;96979.49;582688;242;68370;-64
2023/06/25 02:34:16;;;;;;;;;;;;;;;23.34;75.60;96984.86;582690;243;69431;-64
2023/06/25 02:36:44;;;;;;;;;;;;;;;23.35;75.59;96980.28;582386;243;63064;-64
2023/06/25 02:39:11;;;;;;;;;;;;;;;23.35;75.61;96980.28;582704;243;69190;-64
2023/06/25 02:41:39;;;;;;;;;;;;;;;23.36;75.64;96984.58;582634;243;68641;-64
2023/06/25 02:44:06;;;;;;;;;;;;;;;23.35;75.61;96980.28;582387;243;65074;-64
2023/06/25 02:46:35;;;;;;;;;;;;;;;23.35;75.60;96977.61;582725;243;66619;-64
2023/06/25 02:49:03;;;;;;;;;;;;;;;23.35;75.58;96977.61;582636;243;66001;-64
2023/06/25 02:51:31;;;;;;;;;;;;;;;23.34;75.59;96981.38;582770;242;62771;-64
2023/06/25 02:53:58;;;;;;;;;;;;;;;23.34;75.60;96986.75;582706;243;68541;-64
2023/06/25 02:56:26;;;;;;;;;;;;;;;23.34;75.58;96989.42;582342;243;68378;-64
2023/06/25 02:58:53;;;;;;;;;;;;;;;23.33;75.61;96983.27;582725;243;66122;-64
2023/06/25 03:01:21;;;;;;;;;;;;;;;23.35;75.63;96989.13;582742;242;69105;-64
2023/06/25 03:03:48;;;;;;;;;;;;;;;23.34;75.61;96994.80;586135;241;68550;-64
2023/06/25 03:06:16;;;;;;;;;;;;;;;23.34;75.63;96997.47;587306;241;65788;-64
2023/06/25 03:08:43;;;;;;;;;;;;;;;23.35;75.64;96996.38;587366;241;69410;-64
2023/06/25 03:11:11;;;;;;;;;;;;;;;23.34;75.62;97005.52;587342;241;68922;-64
2023/06/25 03:13:38;;;;;;;;;;;;;;;23.34;75.62;97013.56;587395;241;64950;-64
2023/06/25 03:16:06;;;;;;;;;;;;;;;23.34;75.62;97006.31;587359;241;69249;-64
2023/06/25 03:18:34;;;;;;;;;;;;;;;23.34;75.65;97016.24;587357;241;65915;-64
2023/06/25 03:21:01;;;;;;;;;;;;;;;23.34;75.65;97019.72;587354;241;65699;-64
2023/06/25 03:23:29;;;;;;;;;;;;;;;23.35;75.65;97017.83;587364;241;68542;-64
2023/06/25 03:25:57;;;;;;;;;;;;;;;23.34;75.66;97025.08;587353;241;68855;-64
2023/06/25 03:28:26;;;;;;;;;;;;;;;23.35;75.64;97023.19;587381;241;43937;-64
2023/06/25 03:30:54;;;;;;;;;;;;;;;23.34;75.65;97032.33;587350;241;65916;-64
2023/06/25 03:33:22;;;;;;;;;;;;;;;23.34;75.66;97035.02;587311;241;69135;-64
2023/06/25 03:35:50;;;;;;;;;;;;;;;23.35;75.66;97039.28;587378;241;65355;-64
2023/06/25 03:38:18;;;;;;;;;;;;;;;23.34;75.67;97038.48;587356;241;66343;-64
2023/06/25 03:40:45;;;;;;;;;;;;;;;23.35;75.65;97050.01;587259;241;66557;-64
2023/06/25 03:43:13;;;;;;;;;;;;;;;23.34;75.66;97051.89;582282;241;61963;-64
2023/06/25 03:45:40;;;;;;;;;;;;;;;23.35;75.68;97058.05;587323;241;69020;-64
2023/06/25 03:48:08;;;;;;;;;;;;;;;23.34;75.67;97059.15;587358;241;68896;-64
2023/06/25 03:50:36;;;;;;;;;;;;;;;23.34;75.67;97051.10;587341;241;62432;-64
2023/06/25 03:53:03;;;;;;;;;;;;;;;23.34;75.67;97061.83;587394;241;68112;-64
2023/06/25 03:55:33;;;;;;;;;;;;;;;23.35;75.66;97060.73;587319;241;69733;-64
2023/06/25 03:58:00;;;;;;;;;;;;;;;23.34;75.69;97059.94;587302;241;64892;-64
2023/06/25 04:00:28;;;;;;;;;;;;;;;23.35;75.67;97060.73;587362;241;68565;-64
2023/06/25 04:02:55;;;;;;;;;;;;;;;23.35;75.68;97063.41;587281;241;68949;-64
2023/06/25 04:05:25;;;;;;;;;;;;;;;23.34;75.69;97059.15;587305;241;64473;-64
2023/06/25 04:07:53;;;;;;;;;;;;;;;23.35;75.69;97064.20;587312;241;69043;-64
2023/06/25 04:10:21;;;;;;;;;;;;;;;23.34;75.71;97059.15;587297;241;68078;-64
2023/06/25 04:12:48;;;;;;;;;;;;;;;23.34;75.68;97059.15;587300;241;62984;-64
2023/06/25 04:15:17;;;;;;;;;;;;;;;23.34;75.70;97069.88;582312;241;69855;-64
2023/06/25 04:17:46;;;;;;;;;;;;;;;23.34;75.70;97069.88;587255;241;68351;-64
2023/06/25 04:20:14;;;;;;;;;;;;;;;23.34;75.72;97075.23;587252;241;65711;-63
2023/06/25 04:22:42;;;;;;;;;;;;;;;23.34;75.70;97070.67;587320;241;68464;-64
2023/06/25 04:25:09;;;;;;;;;;;;;;;23.34;75.68;97070.67;587322;241;68658;-64
2023/06/25 04:27:37;;;;;;;;;;;;;;;23.33;75.70;97070.97;587299;241;64887;-64
2023/06/25 04:30:05;;;;;;;;;;;;;;;23.33;75.69;97068.29;587371;241;69465;-64
2023/06/25 04:32:33;;;;;;;;;;;;;;;23.33;75.69;97070.97;587372;241;66495;-64
2023/06/25 04:35:00;;;;;;;;;;;;;;;23.34;75.69;97076.03;587345;241;65462;-64
2023/06/25 04:37:28;;;;;;;;;;;;;;;23.35;75.69;97084.87;587298;241;69056;-64
2023/06/25 04:39:55;;;;;;;;;;;;;;;23.34;75.70;97077.92;587388;241;66207;-64
2023/06/25 04:42:23;;;;;;;;;;;;;;;23.34;75.67;97084.08;587283;241;65040;-64
2023/06/25 04:44:52;;;;;;;;;;;;;;;23.33;75.67;97087.85;587288;241;66148;-64
2023/06/25 04:47:20;;;;;;;;;;;;;;;23.34;75.67;97091.33;587268;241;66677;-64
2023/06/25 04:49:48;;;;;;;;;;;;;;;23.34;75.67;97083.28;587316;241;62777;-64
2023/06/25 04:52:18;;;;;;;;;;;;;;;23.34;75.67;97080.60;587364;241;68502;-64
2023/06/25 04:54:46;;;;;;;;;;;;;;;23.34;75.68;97088.64;587340;241;66444;-62
2023/06/25 04:57:14;;;;;;;;;;;;;;;23.34;75.69;97091.33;587350;241;63046;-62
2023/06/25 04:59:41;;;;;;;;;;;;;;;23.34;75.68;97086.76;587323;241;68554;-62
2023/06/25 05:02:09;;;;;;;;;;;;;;;23.34;75.68;97080.60;587308;241;68734;-62
2023/06/25 05:04:36;;;;;;;;;;;;;;;23.33;75.68;97079.81;582929;241;68517;-62
2023/06/25 05:07:04;;;;;;;;;;;;;;;23.34;75.67;97080.60;588033;240;68351;-62
2023/06/25 05:09:31;;;;;;;;;;;;;;;23.33;75.69;97079.81;588398;240;68777;-62
2023/06/25 05:11:59;;;;;;;;;;;;;;;23.33;75.69;97082.48;588424;240;62955;-62
2023/06/25 05:14:26;;;;;;;;;;;;;;;23.33;75.68;97084.38;588391;241;68922;-62
2023/06/25 05:16:54;;;;;;;;;;;;;;;23.35;75.67;97082.19;588379;241;68838;-62
2023/06/25 05:19:23;;;;;;;;;;;;;;;23.34;75.68;97081.39;588403;240;65071;-62
2023/06/25 05:21:51;;;;;;;;;;;;;;;23.33;75.66;97070.97;588375;240;68788;-63
2023/06/25 05:24:19;;;;;;;;;;;;;;;23.34;75.66;97069.88;588415;241;68694;-63
2023/06/25 05:26:46;;;;;;;;;;;;;;;23.33;75.67;97074.45;588319;240;65181;-63
2023/06/25 05:29:14;;;;;;;;;;;;;;;23.33;75.66;97070.97;588377;240;66605;-63
2023/06/25 05:31:41;;;;;;;;;;;;;;;23.33;75.66;97071.77;588241;240;68729;-63
2023/06/25 05:34:09;;;;;;;;;;;;;;;23.34;75.68;97064.52;588421;241;65119;-63
2023/06/25 05:36:36;;;;;;;;;;;;;;;23.33;75.68;97071.77;588332;241;66720;-63
2023/06/25 05:39:03;;;;;;;;;;;;;;;23.33;75.67;97076.33;588409;241;66607;-63
2023/06/25 05:41:31;;;;;;;;;;;;;;;23.34;75.68;97067.19;588188;240;62976;-63
2023/06/25 05:43:59;;;;;;;;;;;;;;;23.33;75.69;97068.29;588283;240;68830;-63
2023/06/25 05:46:26;;;;;;;;;;;;;;;23.33;75.67;97069.08;588333;241;66574;-63
2023/06/25 05:48:54;;;;;;;;;;;;;;;23.34;75.68;97064.52;588216;240;63815;-63
2023/06/25 05:51:21;;;;;;;;;;;;;;;23.33;75.69;97068.29;588231;240;68999;-63
2023/06/25 05:53:50;;;;;;;;;;;;;;;23.33;75.67;97054.88;588432;241;68431;-63
2023/06/25 05:56:18;;;;;;;;;;;;;;;23.33;75.64;97057.56;588371;241;63956;-64
2023/06/25 05:58:45;;;;;;;;;;;;;;;23.33;75.67;97055.67;588364;241;68889;-64
2023/06/25 06:01:13;;;;;;;;;;;;;;;23.33;75.69;97052.20;588292;241;69052;-64
2023/06/25 06:03:40;;;;;;;;;;;;;;;23.33;75.68;97047.62;586076;240;65173;-64
2023/06/25 06:06:08;;;;;;;;;;;;;;;23.33;75.67;97036.11;582949;242;68633;-63
2023/06/25 06:08:35;;;;;;;;;;;;;;;23.33;75.70;97041.47;582716;243;68715;-63
2023/06/25 06:11:03;;;;;;;;;;;;;;;23.32;75.73;97037.17;582678;242;63057;-63
2023/06/25 06:13:30;;;;;;;;;;;;;;;23.32;75.99;97042.53;582645;243;66752;-63
2023/06/25 06:15:58;;;;;;;;;;;;;;;23.33;76.15;97046.84;582646;243;66722;-63
2023/06/25 06:18:25;;;;;;;;;;;;;;;23.33;76.22;97033.42;582395;243;63012;-63
2023/06/25 06:20:54;;;;;;;;;;;;;;;23.34;76.13;97035.02;582087;243;66331;-63
2023/06/25 06:23:22;;;;;;;;;;;;;;;23.34;76.11;97026.97;582680;243;66472;-63
2023/06/25 06:25:49;;;;;;;;;;;;;;;23.34;76.05;97033.12;582613;242;63853;-63
2023/06/25 06:28:17;;;;;;;;;;;;;;;23.35;76.00;97036.59;582659;242;69076;-63
2023/06/25 06:30:45;;;;;;;;;;;;;;;23.34;76.01;97030.44;582785;242;66626;-63
2023/06/25 06:33:12;;;;;;;;;;;;;;;23.35;76.11;97026.66;582530;243;62959;-63
2023/06/25 06:35:39;;;;;;;;;;;;;;;23.36;76.09;97019.45;582624;242;66538;-63
2023/06/25 06:38:07;;;;;;;;;;;;;;;23.36;76.10;97022.92;582644;243;66385;-63
2023/06/25 06:40:34;;;;;;;;;;;;;;;23.36;76.19;97022.13;582754;242;65321;-63
2023/06/25 06:43:02;;;;;;;;;;;;;;;23.36;76.20;97016.77;582521;243;66858;-63
2023/06/25 06:45:29;;;;;;;;;;;;;;;23.36;76.23;97012.19;582716;242;66649;-63
2023/06/25 06:47:57;;;;;;;;;;;;;;;23.37;76.22;97015.67;582700;243;63928;-63
2023/06/25 06:50:24;;;;;;;;;;;;;;;23.37;76.23;97010.30;582521;243;66650;-63
2023/06/25 06:52:52;;;;;;;;;;;;;;;23.37;76.24;97005.73;582595;242;68778;-63
2023/06/25 06:55:19;;;;;;;;;;;;;;;23.37;76.23;96999.58;582622;242;65067;-63
2023/06/25 06:57:47;;;;;;;;;;;;;;;23.37;76.20;96994.22;582698;242;66689;-63
2023/06/25 07:00:17;;;;;;;;;;;;;;;23.37;76.27;96995.00;582698;243;68792;-63
2023/06/25 07:02:44;;;;;;;;;;;;;;;23.38;76.22;96990.44;582591;240;65135;-63
2023/06/25 07:05:12;;;;;;;;;;;;;;;23.38;76.28;96988.58;582677;243;66765;-63
2023/06/25 07:07:41;;;;;;;;;;;;;;;23.38;76.22;96982.39;582684;243;68525;-63
2023/06/25 07:10:09;;;;;;;;;;;;;;;23.38;76.26;96979.70;582555;243;62796;-63
2023/06/25 07:12:37;;;;;;;;;;;;;;;23.39;76.23;96976.75;582075;243;68897;-63
2023/06/25 07:15:05;;;;;;;;;;;;;;;23.39;76.24;96973.28;582623;242;68990;-63
2023/06/25 07:17:34;;;;;;;;;;;;;;;23.40;76.26;96977.55;582616;243;65083;-63
2023/06/25 07:20:01;;;;;;;;;;;;;;;23.39;76.27;96970.59;582477;243;66883;-63
2023/06/25 07:22:29;;;;;;;;;;;;;;;23.40;76.23;96966.82;582536;243;66608;-63
2023/06/25 07:24:56;;;;;;;;;;;;;;;23.40;76.30;96961.45;582634;243;65073;-63
2023/06/25 07:27:24;;;;;;;;;;;;;;;23.40;76.27;96956.88;582794;242;66514;-63
2023/06/25 07:29:51;;;;;;;;;;;;;;;23.40;76.22;96966.82;582604;243;68687;-63
2023/06/25 07:32:19;;;;;;;;;;;;;;;23.41;76.27;96955.02;582723;242;65113;-63
2023/06/25 07:34:46;;;;;;;;;;;;;;;23.41;76.27;96957.70;582668;243;68580;-63
2023/06/25 07:37:14;;;;;;;;;;;;;;;23.41;76.24;96960.39;582548;243;66585;-63
2023/06/25 07:39:41;;;;;;;;;;;;;;;23.41;76.22;96952.34;582674;243;62927;-63
2023/06/25 07:42:09;;;;;;;;;;;;;;;23.40;76.25;96946.16;582701;242;66984;-63
2023/06/25 07:44:36;;;;;;;;;;;;;;;23.41;76.26;96944.30;582489;243;66697;-62
2023/06/25 07:47:04;;;;;;;;;;;;;;;23.41;76.28;96952.34;582684;242;65077;-62
2023/06/25 07:49:31;;;;;;;;;;;;;;;23.41;76.29;96942.41;582533;243;66671;-62
2023/06/25 07:51:59;;;;;;;;;;;;;;;23.41;76.28;96942.41;582693;243;68612;-62
2023/06/25 07:54:26;;;;;;;;;;;;;;;23.42;76.24;96932.47;582681;243;65050;-62
2023/06/25 07:56:54;;;;;;;;;;;;;;;23.41;76.24;96931.68;582730;242;68574;-63
2023/06/25 07:59:21;;;;;;;;;;;;;;;23.42;76.32;96937.84;582627;243;68539;-63
2023/06/25 08:01:49;;;;;;;;;;;;;;;23.42;76.26;96929.80;582709;242;65206;-63
2023/06/25 08:04:16;;;;;;;;;;;;;;;23.42;76.32;96922.53;586948;241;66437;-63
2023/06/25 08:06:44;;;;;;;;;;;;;;;23.42;76.26;96924.42;587281;241;66402;-63
2023/06/25 08:09:11;;;;;;;;;;;;;;;23.42;76.26;96924.42;587346;241;62881;-63
2023/06/25 08:11:38;;;;;;;;;;;;;;;23.42;76.31;96922.53;587171;241;66390;-63
2023/06/25 08:14:07;;;;;;;;;;;;;;;23.43;76.29;96915.28;587521;241;68439;-63
2023/06/25 08:16:34;;;;;;;;;;;;;;;23.42;76.26;96917.17;587327;241;65226;-63
2023/06/25 08:19:02;;;;;;;;;;;;;;;23.43;76.30;96913.39;587314;241;68569;-63
2023/06/25 08:21:29;;;;;;;;;;;;;;;23.44;76.27;96908.85;587296;241;66311;-62
2023/06/25 08:23:57;;;;;;;;;;;;;;;23.43;76.28;96909.92;587281;241;63963;-63
2023/06/25 08:26:24;;;;;;;;;;;;;;;23.43;76.33;96899.98;587249;241;66556;-63
2023/06/25 08:28:52;;;;;;;;;;;;;;;23.43;76.36;96896.52;587246;241;66968;-63
2023/06/25 08:31:19;;;;;;;;;;;;;;;23.44;76.34;96893.55;587356;241;65061;-63
2023/06/25 08:33:47;;;;;;;;;;;;;;;23.43;76.29;96897.30;587260;241;66794;-63
2023/06/25 08:36:14;;;;;;;;;;;;;;;23.44;76.32;96893.55;587364;241;68753;-62
2023/06/25 08:38:42;;;;;;;;;;;;;;;23.44;76.31;96887.39;587301;241;65114;-62
2023/06/25 08:41:09;;;;;;;;;;;;;;;23.44;76.33;96882.03;587311;240;68913;-63
2023/06/25 08:43:37;;;;;;;;;;;;;;;23.43;76.36;96880.42;587320;241;66717;-63
2023/06/25 08:46:06;;;;;;;;;;;;;;;23.44;76.32;96882.83;587294;241;63082;-63
2023/06/25 08:48:34;;;;;;;;;;;;;;;23.43;76.33;96881.21;587270;241;66371;-62
2023/06/25 08:51:05;;;;;;;;;;;;;;;23.44;76.34;96871.30;587350;241;66677;-62
2023/06/25 08:53:33;;;;;;;;;;;;;;;23.44;76.32;96876.67;587152;241;65178;-62
2023/06/25 08:56:02;;;;;;;;;;;;;;;23.44;76.27;96879.35;587279;241;69082;-62
2023/06/25 08:58:31;;;;;;;;;;;;;;;23.44;76.32;96868.63;587261;241;68704;-63
2023/06/25 09:00:58;;;;;;;;;;;;;;;23.44;76.33;96869.41;587299;241;65281;-62
2023/06/25 09:03:27;;;;;;;;;;;;;;;23.44;76.33;96865.95;587256;241;68851;-62
2023/06/25 09:05:55;;;;;;;;;;;;;;;23.45;76.33;96864.84;587229;241;68737;-63
2023/06/25 09:08:23;;;;;;;;;;;;;;;23.44;76.31;96861.37;587232;241;65097;-63
2023/06/25 09:10:52;;;;;;;;;;;;;;;23.44;76.33;96861.37;587315;241;68907;-63
2023/06/25 09:13:27;;;;;;;;;;;;;;;23.44;76.32;96858.69;587038;241;66627;-63
2023/06/25 09:15:56;;;;;;;;;;;;;;;23.45;76.31;96856.80;587252;241;65118;-62
2023/06/25 09:18:23;;;;;;;;;;;;;;;23.45;76.28;96854.91;587083;241;66715;-62
2023/06/25 09:20:51;;;;;;;;;;;;;;;23.45;76.30;96854.91;587269;241;68699;-63
2023/06/25 09:23:19;;;;;;;;;;;;;;;23.45;76.31;96846.07;587307;241;65141;-63
2023/06/25 09:25:47;;;;;;;;;;;;;;;23.45;76.37;96846.86;587262;241;68939;-63
2023/06/25 09:28:15;;;;;;;;;;;;;;;23.46;76.30;96836.92;587268;241;68717;-62
2023/06/25 09:30:42;;;;;;;;;;;;;;;23.46;76.31;96839.61;587227;241;65031;-62
2023/06/25 09:33:11;;;;;;;;;;;;;;;23.46;76.32;96831.56;587250;241;68852;-62
2023/06/25 09:35:38;;;;;;;;;;;;;;;23.45;76.28;96822.72;587348;241;68434;-63
2023/06/25 09:38:06;;;;;;;;;;;;;;;23.45;76.33;96816.56;587242;241;65117;-63
2023/06/25 09:40:34;;;;;;;;;;;;;;;23.45;76.33;96820.05;587215;241;68853;-63
2023/06/25 09:43:05;;;;;;;;;;;;;;;23.46;76.29;96820.83;587314;241;68985;-63
2023/06/25 09:45:31;;;;;;;;;;;;;;;23.46;76.34;96820.83;587203;241;65054;-63
2023/06/25 09:48:01;;;;;;;;;;;;;;;23.47;76.29;96806.36;587347;241;68875;-63
2023/06/25 09:50:30;;;;;;;;;;;;;;;23.45;76.31;96806.63;587250;241;66549;-63
2023/06/25 09:52:59;;;;;;;;;;;;;;;23.46;76.30;96810.93;587208;241;62959;-63
2023/06/25 09:55:28;;;;;;;;;;;;;;;23.46;76.29;96802.06;587198;241;66764;-62
2023/06/25 09:57:56;;;;;;;;;;;;;;;23.46;76.30;96800.20;587246;241;66552;-62
2023/06/25 10:00:29;;;;;;;;;;;;;;;23.46;76.30;96800.20;587353;241;65053;-62
2023/06/25 10:02:54;;;;;;;;;;;;;;;23.47;76.29;96798.31;585367;240;68577;-63
2023/06/25 10:05:22;;;;;;;;;;;;;;;23.46;76.30;96794.84;581919;243;68683;-63
2023/06/25 10:07:49;;;;;;;;;;;;;;;23.47;76.33;96792.95;582656;243;65064;-63
2023/06/25 10:10:20;;;;;;;;;;;;;;;23.47;76.28;96795.62;582702;242;69017;-63
2023/06/25 10:12:49;;;;;;;;;;;;;;;23.47;76.36;96793.73;582492;242;68745;-63
2023/06/25 10:15:18;;;;;;;;;;;;;;;23.47;76.35;96790.27;582606;243;63902;-63
2023/06/25 10:17:46;;;;;;;;;;;;;;;23.47;76.34;96785.69;581797;243;68791;-63
2023/06/25 10:20:14;;;;;;;;;;;;;;;23.47;76.36;96783.01;582495;243;66615;-63
2023/06/25 10:22:43;;;;;;;;;;;;;;;23.46;76.33;96778.74;582649;243;63700;-63
2023/06/25 10:25:10;;;;;;;;;;;;;;;23.46;76.37;96784.11;582332;243;68854;-63
2023/06/25 10:27:38;;;;;;;;;;;;;;;23.47;76.33;96774.17;582739;242;66570;-62
2023/06/25 10:30:07;;;;;;;;;;;;;;;23.48;76.35;96767.70;582650;243;62966;-62
2023/06/25 10:32:36;;;;;;;;;;;;;;;23.46;76.32;96759.97;582385;243;68849;-63
2023/06/25 10:35:04;;;;;;;;;;;;;;;23.47;76.35;96755.40;582809;241;66707;-63
2023/06/25 10:37:32;;;;;;;;;;;;;;;23.47;76.39;96752.72;582492;243;65081;-63
2023/06/25 10:40:07;;;;;;;;;;;;;;;23.48;76.34;96754.30;582751;242;68847;-63
2023/06/25 10:42:39;;;;;;;;;;;;;;;23.48;76.37;96751.61;582586;243;68725;-63
2023/06/25 10:45:04;;;;;;;;;;;;;;;23.47;76.35;96750.83;582553;243;65063;-63
2023/06/25 10:47:33;;;;;;;;;;;;;;;23.47;76.34;96748.14;582652;243;68944;-63
2023/06/25 10:50:00;;;;;;;;;;;;;;;23.48;76.34;96751.61;582346;243;68453;-63
2023/06/25 10:52:28;;;;;;;;;;;;;;;23.48;76.34;96740.89;582556;243;65028;-62
2023/06/25 10:54:56;;;;;;;;;;;;;;;23.47;76.38;96734.73;582669;243;66607;-62
2023/06/25 10:57:23;;;;;;;;;;;;;;;23.47;76.34;96734.73;582483;243;68814;-62
2023/06/25 10:59:51;;;;;;;;;;;;;;;23.48;76.37;96735.52;582182;243;62942;-62
2023/06/25 11:02:20;;;;;;;;;;;;;;;23.48;76.36;96740.89;583152;241;68974;-63
2023/06/25 11:04:51;;;;;;;;;;;;;;;23.49;76.38;96729.09;587251;241;69904;-62
2023/06/25 11:07:20;;;;;;;;;;;;;;;23.49;76.36;96729.09;587414;241;65074;-62
2023/06/25 11:09:52;;;;;;;;;;;;;;;23.48;76.35;96722.11;587063;241;68851;-62
2023/06/25 11:12:20;;;;;;;;;;;;;;;23.49;76.38;96726.41;587375;241;68718;-63
2023/06/25 11:14:47;;;;;;;;;;;;;;;23.48;76.34;96725.59;587294;241;65032;-63
2023/06/25 11:17:15;;;;;;;;;;;;;;;23.49;76.37;96723.72;587145;241;68755;-63
2023/06/25 11:19:42;;;;;;;;;;;;;;;23.49;76.37;96726.41;587299;241;68583;-63
2023/06/25 11:22:10;;;;;;;;;;;;;;;23.49;76.37;96724.52;587332;241;64936;-63
2023/06/25 11:24:38;;;;;;;;;;;;;;;23.50;76.40;96719.94;587315;241;69126;-63
2023/06/25 11:27:06;;;;;;;;;;;;;;;23.48;76.36;96712.17;587242;241;68718;-63
2023/06/25 11:29:37;;;;;;;;;;;;;;;23.50;76.36;96711.89;587249;241;65219;-63
2023/06/25 11:32:09;;;;;;;;;;;;;;;23.48;76.34;96706.81;587283;241;68882;-63
2023/06/25 11:34:37;;;;;;;;;;;;;;;23.49;76.36;96713.79;587317;241;68946;-63
2023/06/25 11:37:14;;;;;;;;;;;;;;;23.49;76.33;96713.79;587299;241;65155;-63
2023/06/25 11:39:43;;;;;;;;;;;;;;;23.49;76.33;96724.52;586898;241;68990;-62
2023/06/25 11:42:15;;;;;;;;;;;;;;;23.50;76.32;96722.63;587203;241;66718;-62
2023/06/25 11:44:43;;;;;;;;;;;;;;;23.49;76.34;96721.83;587262;241;65055;-63
2023/06/25 11:47:11;;;;;;;;;;;;;;;23.49;76.36;96724.52;587308;240;66875;-63
2023/06/25 11:49:39;;;;;;;;;;;;;;;23.50;76.35;96722.63;587333;241;68734;-63
2023/06/25 11:52:07;;;;;;;;;;;;;;;23.49;76.37;96721.05;587308;241;65056;-63
2023/06/25 11:54:34;;;;;;;;;;;;;;;23.49;76.33;96724.52;587263;241;68969;-63
2023/06/25 11:57:02;;;;;;;;;;;;;;;23.50;76.35;96722.63;587305;241;66615;-63
2023/06/25 11:59:29;;;;;;;;;;;;;;;23.51;76.37;96726.09;587268;241;63861;-63
2023/06/25 12:01:57;;;;;;;;;;;;;;;23.50;76.36;96725.30;587310;241;68851;-63
2023/06/25 12:04:24;;;;;;;;;;;;;;;23.51;76.35;96731.46;587274;241;68169;-63
2023/06/25 12:06:51;;;;;;;;;;;;;;;23.49;76.35;96729.88;587303;241;64994;-63
2023/06/25 12:09:19;;;;;;;;;;;;;;;23.51;76.40;96726.09;587395;241;68410;-64
2023/06/25 12:11:46;;;;;;;;;;;;;;;23.50;76.33;96730.67;587310;241;66603;-63
2023/06/25 12:14:14;;;;;;;;;;;;;;;23.51;76.34;96720.73;587252;241;65086;-63
2023/06/25 12:16:41;;;;;;;;;;;;;;;23.51;76.34;96718.05;587324;241;66518;-63
2023/06/25 12:19:09;;;;;;;;;;;;;;;23.50;76.33;96706.53;587218;241;66485;-63
2023/06/25 12:21:36;;;;;;;;;;;;;;;23.51;76.32;96699.27;587278;241;65100;-63
2023/06/25 12:24:04;;;;;;;;;;;;;;;23.51;76.33;96697.38;587296;241;66309;-63
2023/06/25 12:26:32;;;;;;;;;;;;;;;23.52;76.36;96692.81;587298;241;68557;-63
2023/06/25 12:28:59;;;;;;;;;;;;;;;23.51;76.38;96689.34;587347;241;65232;-63
2023/06/25 12:31:28;;;;;;;;;;;;;;;23.51;76.33;96692.02;587229;241;68464;-63
2023/06/25 12:33:56;;;;;;;;;;;;;;;23.51;76.38;96683.97;587256;241;68724;-62
2023/06/25 12:36:23;;;;;;;;;;;;;;;23.51;76.36;96691.23;587243;241;63020;-62
2023/06/25 12:38:51;;;;;;;;;;;;;;;23.51;76.34;96689.34;587277;241;66930;-62
2023/06/25 12:41:19;;;;;;;;;;;;;;;23.51;76.35;96694.70;587442;241;68725;-65
2023/06/25 12:43:47;;;;;;;;;;;;;;;23.51;76.33;96700.06;587716;241;63059;-63
2023/06/25 12:46:15;;;;;;;;;;;;;;;23.52;76.32;96706.22;587262;241;68797;-63
2023/06/25 12:48:44;;;;;;;;;;;;;;;23.52;76.37;96706.22;587247;241;68702;-63
2023/06/25 12:51:11;;;;;;;;;;;;;;;23.52;76.35;96712.41;587307;241;65070;-63